Map

Track Data

SID SEASON NUMBER BASIN SUBBASIN NAME ISO_TIME NATURE LAT LON WMO_WIND WMO_PRES WMO_AGENCY TRACK_TYPE DIST2LAND LANDFALL IFLAG USA_AGENCY USA_ATCF_ID USA_LAT USA_LON USA_RECORD USA_STATUS USA_WIND USA_PRES USA_SSHS USA_R34_NE USA_R34_SE USA_R34_SW USA_R34_NW USA_R50_NE USA_R50_SE USA_R50_SW USA_R50_NW USA_R64_NE USA_R64_SE USA_R64_SW USA_R64_NW USA_POCI USA_ROCI USA_RMW USA_EYE TOKYO_LAT TOKYO_LON TOKYO_GRADE TOKYO_WIND TOKYO_PRES TOKYO_R50_DIR TOKYO_R50_LONG TOKYO_R50_SHORT TOKYO_R30_DIR TOKYO_R30_LONG TOKYO_R30_SHORT TOKYO_LAND CMA_LAT CMA_LON CMA_CAT CMA_WIND CMA_PRES HKO_LAT HKO_LON HKO_CAT HKO_WIND HKO_PRES NEWDELHI_LAT NEWDELHI_LON NEWDELHI_GRADE NEWDELHI_WIND NEWDELHI_PRES NEWDELHI_CI NEWDELHI_DP NEWDELHI_POCI REUNION_LAT REUNION_LON REUNION_TYPE REUNION_WIND REUNION_PRES REUNION_TNUM REUNION_CI REUNION_RMW REUNION_R34_NE REUNION_R34_SE REUNION_R34_SW REUNION_R34_NW REUNION_R50_NE REUNION_R50_SE REUNION_R50_SW REUNION_R50_NW REUNION_R64_NE REUNION_R64_SE REUNION_R64_SW REUNION_R64_NW BOM_LAT BOM_LON BOM_TYPE BOM_WIND BOM_PRES BOM_TNUM BOM_CI BOM_RMW BOM_R34_NE BOM_R34_SE BOM_R34_SW BOM_R34_NW BOM_R50_NE BOM_R50_SE BOM_R50_SW BOM_R50_NW BOM_R64_NE BOM_R64_SE BOM_R64_SW BOM_R64_NW BOM_ROCI BOM_POCI BOM_EYE BOM_POS_METHOD BOM_PRES_METHOD NADI_LAT NADI_LON NADI_CAT NADI_WIND NADI_PRES WELLINGTON_LAT WELLINGTON_LON WELLINGTON_WIND WELLINGTON_PRES DS824_LAT DS824_LON DS824_STAGE DS824_WIND DS824_PRES TD9636_LAT TD9636_LON TD9636_STAGE TD9636_WIND TD9636_PRES TD9635_LAT TD9635_LON TD9635_WIND TD9635_PRES TD9635_ROCI NEUMANN_LAT NEUMANN_LON NEUMANN_CLASS NEUMANN_WIND NEUMANN_PRES MLC_LAT MLC_LON MLC_CLASS MLC_WIND MLC_PRES USA_GUST BOM_GUST BOM_GUST_PER REUNION_GUST REUNION_GUST_PER USA_SEAHGT USA_SEARAD_NE USA_SEARAD_SE USA_SEARAD_SW USA_SEARAD_NW STORM_SPEED STORM_DIR
1884041S15075 1884 5 SI MM NOT_NAMED 1884-02-10 00:00:00 TS -14.8000 75.4000 main 1963 1881 _________O____ -1 -14.8000 75.4000 TC 16 245
1884041S15075 1884 5 SI MM NOT_NAMED 1884-02-10 03:00:00 TS -15.1456 74.6306 main 1871 1785 _________P____ -1 -15.1456 74.6306 TC 16 244
1884041S15075 1884 5 SI MM NOT_NAMED 1884-02-10 06:00:00 TS -15.5000 73.9000 main 1785 1709 _________O____ -1 -15.5000 73.9000 TC 15 241
1884041S15075 1884 5 SI MM NOT_NAMED 1884-02-10 09:00:00 TS -15.8772 73.2346 main 1699 1624 _________P____ -1 -15.8772 73.2346 TC 15 237
1884041S15075 1884 5 SI MM NOT_NAMED 1884-02-10 12:00:00 TS -16.3000 72.6000 main 1624 1550 _________O____ -1 -16.3000 72.6000 TC 15 235
1884041S15075 1884 5 SI MM NOT_NAMED 1884-02-10 15:00:00 TS -16.7700 71.9274 main 1536 1459 _________P____ -1 -16.7700 71.9274 TC 16 231
1884041S15075 1884 5 SI MM NOT_NAMED 1884-02-10 18:00:00 TS -17.3000 71.3000 main 1459 1391 _________O____ -1 -17.3000 71.3000 TC 16 225
1884041S15075 1884 5 SI MM NOT_NAMED 1884-02-10 21:00:00 TS -17.9224 70.7328 main 1381 1326 _________P____ -1 -17.9224 70.7328 TC 15 218
1884041S15075 1884 5 SI MM NOT_NAMED 1884-02-11 00:00:00 TS -18.5000 70.3000 main 1326 1287 _________O____ -1 -18.5000 70.3000 TC 12 214
1884041S15075 1884 5 SI MM NOT_NAMED 1884-02-11 03:00:00 TS -18.8798 70.0395 main 1287 1271 _________P____ -1 -18.8798 70.0395 TC 8 208
1884041S15075 1884 5 SI MM NOT_NAMED 1884-02-11 06:00:00 TS -19.2000 69.9000 main 1271 1256 _________O____ -1 -19.2000 69.9000 TC 7 199
1884041S15075 1884 5 SI MM NOT_NAMED 1884-02-11 09:00:00 TS -19.5850 69.7849 main 1256 1242 _________P____ -1 -19.5850 69.7849 TC 8 193
1884041S15075 1884 5 SI MM NOT_NAMED 1884-02-11 12:00:00 TS -20.0000 69.7000 main 1242 1229 _________O____ -1 -20.0000 69.7000 TC 9 193
1884041S15075 1884 5 SI MM NOT_NAMED 1884-02-11 15:00:00 TS -20.4425 69.5851 main 1229 1218 _________P____ -1 -20.4425 69.5851 TC 9 192
1884041S15075 1884 5 SI MM NOT_NAMED 1884-02-11 18:00:00 TS -20.9000 69.5000 main 1219 1219 _________O____ -1 -20.9000 69.5000 TC 9 187
1884041S15075 1884 5 SI MM NOT_NAMED 1884-02-11 21:00:00 TS -21.3350 69.4700 main 1220 1220 _________P____ -1 -21.3350 69.4700 TC 9 0
1884041S15075 1884 5 SI MM NOT_NAMED 1884-02-12 00:00:00 TS -21.8000 69.5000 main 1225 1225 _________O____ -1 -21.8000 69.5000 TC 10 174
1884041S15075 1884 5 SI MM NOT_NAMED 1884-02-12 03:00:00 TS -22.3350 69.5775 main 1242 1242 _________P____ -1 -22.3350 69.5775 TC 11 170
1884041S15075 1884 5 SI MM NOT_NAMED 1884-02-12 06:00:00 TS -22.9000 69.7000 main 1263 1263 _________O____ -1 -22.9000 69.7000 TC 11 168
1884041S15075 1884 5 SI MM NOT_NAMED 1884-02-12 09:00:00 TS -23.4500 69.8351 main 1285 1285 _________P____ -1 -23.4500 69.8351 TC 11 166
1884041S15075 1884 5 SI MM NOT_NAMED 1884-02-12 12:00:00 TS -24.0000 70.0000 main 1321 1321 _________O____ -1 -24.0000 70.0000 TC 12 164
1884041S15075 1884 5 SI MM NOT_NAMED 1884-02-12 15:00:00 TS -24.5575 70.1925 main 1360 1360 _________P____ -1 -24.5575 70.1925 TC 12 162
1884041S15075 1884 5 SI MM NOT_NAMED 1884-02-12 18:00:00 TS -25.1000 70.4000 main 1398 1398 _________O____ -1 -25.1000 70.4000 TC 11 161
1884041S15075 1884 5 SI MM NOT_NAMED 1884-02-12 21:00:00 TS -25.5999 70.5928 main 1436 1436 _________P____ -1 -25.5999 70.5928 TC 11 160
1884041S15075 1884 5 SI MM NOT_NAMED 1884-02-13 00:00:00 TS -26.1000 70.8000 main 1475 1475 _________O____ -1 -26.1000 70.8000 TC 11 159
1884041S15075 1884 5 SI MM NOT_NAMED 1884-02-13 03:00:00 TS -26.6425 71.0426 main 1515 1515 _________P____ -1 -26.6425 71.0426 TC 12 158
1884041S15075 1884 5 SI MM NOT_NAMED 1884-02-13 06:00:00 TS -27.2000 71.3000 main 1570 1570 _________O____ -1 -27.2000 71.3000 TC 12 158
1884041S15075 1884 5 SI MM NOT_NAMED 1884-02-13 09:00:00 TS -27.7724 71.5501 main 1626 1626 _________P____ -1 -27.7724 71.5501 TC 12 158
1884041S15075 1884 5 SI MM NOT_NAMED 1884-02-13 12:00:00 TS -28.3000 71.8000 main 1670 1670 _________O____ -1 -28.3000 71.8000 TC 11 155
1884041S15075 1884 5 SI MM NOT_NAMED 1884-02-13 15:00:00 TS -28.7299 72.0503 main 1717 1717 _________P____ -1 -28.7299 72.0503 TC 9 151
1884041S15075 1884 5 SI MM NOT_NAMED 1884-02-13 18:00:00 TS -29.1000 72.3000 main 1755 1755 _________O____ -1 -29.1000 72.3000 TC 8 149
1884041S15075 1884 5 SI MM NOT_NAMED 1884-02-13 21:00:00 TS -29.4526 72.5496 main 1795 1795 _________P____ -1 -29.4526 72.5496 TC 8 148
1884041S15075 1884 5 SI MM NOT_NAMED 1884-02-14 00:00:00 TS -29.8000 72.8000 main 1837 _________O____ -1 -29.8000 72.8000 TC 8 148

About IBTrACS Database

This database is a web-friendly format of International Best Track Archive for Climate Stewardship (IBTrACS), a global best track data archive curated by NOAA dating back to 1842.

Updated: 2021-10-27